Time;durP1;ratioP1;P1;durP2;ratioP2;P2;SDS_P1;SDS_P2;PMS_P1;PMS_P2;Temp;Humidity;BMP_temperature;BMP_pressure;BME280_temperature;BME280_humidity;BME280_pressure;Samples;Min_cycle;Max_cycle;Signal;HPM_P1;HPM_P2
2023/08/15 00:01:44;;;;;;;6.30;2.53;;;22.10;99.10;;;;;;4069913;29;20048;-58
2023/08/15 00:03:46;;;;;;;10.50;2.40;;;22.10;99.40;;;;;;4069593;29;20387;-58
2023/08/15 00:05:48;;;;;;;8.60;3.10;;;22.10;99.30;;;;;;4070037;29;20447;-57
2023/08/15 00:07:51;;;;;;;9.82;2.85;;;22.00;99.40;;;;;;4070121;29;20087;-57
2023/08/15 00:09:54;;;;;;;7.53;2.72;;;22.00;99.40;;;;;;4069970;29;20052;-57
2023/08/15 00:11:56;;;;;;;9.18;2.63;;;22.00;99.50;;;;;;4069867;29;20570;-58
2023/08/15 00:13:58;;;;;;;6.80;2.40;;;22.10;99.50;;;;;;4069270;29;20079;-57
2023/08/15 00:16:00;;;;;;;8.48;2.90;;;22.10;99.20;;;;;;4069500;29;20056;-58
2023/08/15 00:18:03;;;;;;;9.50;3.13;;;22.10;99.20;;;;;;4070035;29;20048;-57
2023/08/15 00:20:06;;;;;;;8.52;2.58;;;22.00;99.10;;;;;;4069853;29;20167;-58
2023/08/15 00:22:08;;;;;;;11.80;3.03;;;22.10;99.20;;;;;;4069934;29;20135;-57
2023/08/15 00:24:10;;;;;;;16.08;3.38;;;22.00;99.20;;;;;;4069142;29;20143;-57
2023/08/15 00:26:14;;;;;;;7.15;2.33;;;22.00;99.50;;;;;;4069625;29;20111;-58
2023/08/15 00:28:16;;;;;;;10.80;2.65;;;22.00;99.40;;;;;;4070078;29;20127;-58
2023/08/15 00:30:18;;;;;;;7.65;2.95;;;22.00;99.20;;;;;;4069809;29;20127;-55
2023/08/15 00:32:20;;;;;;;8.93;2.92;;;22.00;99.40;;;;;;4070612;29;20060;-73
2023/08/15 00:34:22;;;;;;;5.00;2.03;;;22.00;99.40;;;;;;4069524;29;20048;-58
2023/08/15 00:36:25;;;;;;;7.97;2.38;;;21.90;99.50;;;;;;4069971;29;20131;-58
2023/08/15 00:38:27;;;;;;;11.30;3.25;;;21.90;99.50;;;;;;4069735;29;20052;-58
2023/08/15 00:40:29;;;;;;;10.88;3.15;;;21.90;99.70;;;;;;4069626;29;20099;-59
2023/08/15 00:42:32;;;;;;;7.05;2.60;;;21.90;99.70;;;;;;4069620;29;20056;-59
2023/08/15 00:44:34;;;;;;;9.30;2.65;;;21.80;99.90;;;;;;4068648;29;20135;-58
2023/08/15 00:46:38;;;;;;;11.82;3.08;;;21.80;99.90;;;;;;4069571;29;20057;-62
2023/08/15 00:48:40;;;;;;;9.10;3.25;;;21.80;99.60;;;;;;4069474;29;20051;-62
2023/08/15 00:50:45;;;;;;;10.13;3.25;;;21.80;99.30;;;;;;4069344;29;20076;-57
2023/08/15 00:52:47;;;;;;;16.80;3.03;;;21.80;99.20;;;;;;4069694;29;20047;-58
2023/08/15 00:54:51;;;;;;;7.68;2.33;;;21.80;99.60;;;;;;4068768;29;20052;-57
2023/08/15 00:56:53;;;;;;;6.82;2.50;;;21.70;99.60;;;;;;4069360;29;20048;-58
2023/08/15 00:58:57;;;;;;;10.18;2.38;;;21.60;99.60;;;;;;4069038;29;20052;-57
2023/08/15 01:00:59;;;;;;;6.53;1.92;;;21.60;99.70;;;;;;4069526;29;20075;-60
2023/08/15 01:03:01;;;;;;;7.80;2.30;;;21.60;99.90;;;;;;4069163;29;20055;-61
2023/08/15 01:05:05;;;;;;;7.05;2.40;;;21.60;99.80;;;;;;4068756;29;20044;-60
2023/08/15 01:07:09;;;;;;;9.63;2.67;;;21.60;99.60;;;;;;4069196;29;20044;-57
2023/08/15 01:09:11;;;;;;;8.52;2.90;;;21.50;99.60;;;;;;4069180;29;20051;-57
2023/08/15 01:11:13;;;;;;;8.93;2.50;;;21.50;99.90;;;;;;4068705;29;20087;-57
2023/08/15 01:13:20;;;;;;;8.82;2.20;;;21.40;99.80;;;;;;4068567;29;20054;-56
2023/08/15 01:15:26;;;;;;;10.40;2.30;;;21.50;99.70;;;;;;4068188;29;20082;-57
2023/08/15 01:17:33;;;;;;;9.63;2.83;;;21.40;99.90;;;;;;4067735;29;20044;-57
2023/08/15 01:19:38;;;;;;;8.68;2.70;;;21.40;99.90;;;;;;4069195;29;20048;-57
2023/08/15 01:21:47;;;;;;;9.07;2.85;;;21.40;99.90;;;;;;4069264;29;20512;-56
2023/08/15 01:23:52;;;;;;;8.38;2.53;;;21.40;99.90;;;;;;4068611;29;20081;-57
2023/08/15 01:25:57;;;;;;;13.48;2.63;;;21.40;99.90;;;;;;4069019;29;20103;-57
2023/08/15 01:27:59;;;;;;;8.75;2.60;;;21.40;99.90;;;;;;4068631;29;20044;-56
2023/08/15 01:30:02;;;;;;;6.65;2.72;;;21.40;99.90;;;;;;4069121;29;20451;-57
2023/08/15 01:32:13;;;;;;;8.93;2.92;;;21.40;99.90;;;;;;4068883;29;20046;-56
2023/08/15 01:34:20;;;;;;;8.82;2.78;;;21.40;99.90;;;;;;4068374;29;20048;-60
2023/08/15 01:36:28;;;;;;;9.60;3.25;;;21.40;99.90;;;;;;4068845;29;20048;-60
2023/08/15 01:38:39;;;;;;;10.63;2.55;;;21.40;99.90;;;;;;4068932;29;20125;-59
2023/08/15 01:40:44;;;;;;;7.53;2.30;;;21.40;99.90;;;;;;4068929;29;20060;-60
2023/08/15 01:42:48;;;;;;;9.05;2.65;;;21.40;99.90;;;;;;4068604;29;20095;-60
2023/08/15 01:44:53;;;;;;;9.85;2.38;;;21.40;99.90;;;;;;4066879;29;20434;-59
2023/08/15 01:46:55;;;;;;;9.57;2.92;;;21.40;99.80;;;;;;4068600;29;20063;-60
2023/08/15 01:48:59;;;;;;;8.43;2.95;;;21.40;99.90;;;;;;4068500;29;20104;-60
2023/08/15 01:51:01;;;;;;;8.70;2.70;;;21.40;99.90;;;;;;4068581;29;20052;-59
2023/08/15 01:53:03;;;;;;;7.00;2.40;;;21.40;99.80;;;;;;4068837;29;20127;-59
2023/08/15 01:55:06;;;;;;;7.25;2.67;;;21.50;99.90;;;;;;4068121;29;20044;-59
2023/08/15 01:57:10;;;;;;;10.07;2.88;;;21.50;99.90;;;;;;4068468;29;20218;-59
2023/08/15 01:59:12;;;;;;;11.00;2.80;;;21.50;99.90;;;;;;4068462;29;20092;-59
2023/08/15 02:01:15;;;;;;;8.48;2.47;;;21.50;99.90;;;;;;4068698;29;20063;-59
2023/08/15 02:03:17;;;;;;;10.32;2.58;;;21.40;99.90;;;;;;4068478;29;20084;-59
2023/08/15 02:05:19;;;;;;;9.68;3.10;;;21.40;99.90;;;;;;4067823;29;20126;-59
2023/08/15 02:07:22;;;;;;;8.25;3.10;;;21.40;99.90;;;;;;4068347;29;20136;-60
2023/08/15 02:09:24;;;;;;;8.68;2.55;;;21.50;99.90;;;;;;4068343;29;20048;-58
2023/08/15 02:11:26;;;;;;;8.15;2.50;;;21.40;99.90;;;;;;4068079;29;20463;-59
2023/08/15 02:13:33;;;;;;;6.90;2.55;;;21.40;99.90;;;;;;4068303;29;20070;-59
2023/08/15 02:15:35;;;;;;;11.40;3.28;;;21.40;99.90;;;;;;4067718;29;20074;-60
2023/08/15 02:17:37;;;;;;;5.53;2.08;;;21.40;99.90;;;;;;4067326;29;20143;-60
2023/08/15 02:19:39;;;;;;;7.05;2.33;;;21.40;99.90;;;;;;4068610;29;20052;-60
2023/08/15 02:21:41;;;;;;;8.73;3.08;;;21.40;99.90;;;;;;4068602;29;20132;-58
2023/08/15 02:23:43;;;;;;;7.75;2.50;;;21.40;99.90;;;;;;4068173;29;20052;-60
2023/08/15 02:25:45;;;;;;;7.80;2.38;;;21.40;99.90;;;;;;4067237;29;20052;-58
2023/08/15 02:27:47;;;;;;;7.45;2.53;;;21.30;99.90;;;;;;4068324;29;20103;-58
2023/08/15 02:29:51;;;;;;;12.98;3.13;;;21.40;99.90;;;;;;4068253;29;20048;-59
2023/08/15 02:31:53;;;;;;;7.38;2.67;;;21.40;99.90;;;;;;4068654;29;20052;-59
2023/08/15 02:33:55;;;;;;;13.05;3.15;;;21.40;99.90;;;;;;4068517;29;20067;-60
2023/08/15 02:36:03;;;;;;;9.65;2.45;;;21.30;99.90;;;;;;4067862;29;20052;-59
2023/08/15 02:38:05;;;;;;;10.60;2.80;;;21.30;99.90;;;;;;4068068;29;20054;-60
2023/08/15 02:40:09;;;;;;;10.75;3.13;;;21.20;99.90;;;;;;4067762;29;20068;-60
2023/08/15 02:42:11;;;;;;;9.18;2.60;;;21.20;99.90;;;;;;4068374;29;20063;-60
2023/08/15 02:44:13;;;;;;;9.63;2.60;;;21.20;99.90;;;;;;4067657;29;20123;-60
2023/08/15 02:46:17;;;;;;;12.25;3.13;;;21.20;99.90;;;;;;4068078;29;20370;-59
2023/08/15 02:48:19;;;;;;;8.55;2.60;;;21.20;99.90;;;;;;4068221;29;20048;-60
2023/08/15 02:50:21;;;;;;;9.77;3.28;;;21.20;99.90;;;;;;4068042;29;20506;-57
2023/08/15 02:52:23;;;;;;;8.27;2.13;;;21.20;99.90;;;;;;4067887;29;20044;-57
2023/08/15 02:54:25;;;;;;;9.65;2.65;;;21.20;99.90;;;;;;4067537;29;20056;-59
2023/08/15 02:56:28;;;;;;;9.07;2.78;;;21.20;99.90;;;;;;4067682;29;20048;-57
2023/08/15 02:58:30;;;;;;;8.45;2.80;;;21.20;99.90;;;;;;4067954;29;20075;-57
2023/08/15 03:00:34;;;;;;;10.85;2.97;;;21.00;99.90;;;;;;4068133;29;20410;-59
2023/08/15 03:02:38;;;;;;;10.60;3.33;;;21.10;99.90;;;;;;4068174;29;20054;-59
2023/08/15 03:04:40;;;;;;;11.68;3.28;;;21.00;99.90;;;;;;4066285;29;20056;-59
2023/08/15 03:06:43;;;;;;;9.85;2.70;;;21.00;99.90;;;;;;4066764;29;20052;-60
2023/08/15 03:08:47;;;;;;;9.27;3.00;;;21.00;99.90;;;;;;4067953;29;20131;-60
2023/08/15 03:10:50;;;;;;;8.18;3.20;;;21.00;99.90;;;;;;4067651;29;20060;-59
2023/08/15 03:12:52;;;;;;;9.57;2.45;;;21.00;99.90;;;;;;4068005;29;20052;-59
2023/08/15 03:14:55;;;;;;;8.55;2.50;;;20.90;99.90;;;;;;4067389;29;20138;-57
2023/08/15 03:16:57;;;;;;;14.82;2.83;;;20.90;99.90;;;;;;4067770;29;20056;-56
2023/08/15 03:19:01;;;;;;;16.13;2.67;;;20.80;99.90;;;;;;4067893;29;20051;-58
2023/08/15 03:21:05;;;;;;;9.75;2.88;;;20.80;99.90;;;;;;4067667;29;20422;-57
2023/08/15 03:23:07;;;;;;;13.52;3.30;;;20.80;99.90;;;;;;4066532;29;20052;-57
2023/08/15 03:25:09;;;;;;;9.63;2.90;;;20.80;99.90;;;;;;4067067;29;20112;-57
2023/08/15 03:27:11;;;;;;;11.80;3.08;;;20.80;99.90;;;;;;4067897;29;20048;-58
2023/08/15 03:29:13;;;;;;;11.73;2.97;;;20.70;99.90;;;;;;4067928;29;20533;-57
2023/08/15 03:31:15;;;;;;;9.32;2.90;;;20.70;99.90;;;;;;4067944;29;20079;-58
2023/08/15 03:33:18;;;;;;;11.40;2.78;;;20.80;99.90;;;;;;4067657;29;20076;-56
2023/08/15 03:35:22;;;;;;;9.13;2.58;;;20.70;99.90;;;;;;4068197;29;20472;-57
2023/08/15 03:37:24;;;;;;;9.57;2.60;;;20.70;99.90;;;;;;4070439;29;20051;-57
2023/08/15 03:39:26;;;;;;;10.23;2.92;;;20.60;99.90;;;;;;4070284;29;20059;-57
2023/08/15 03:41:29;;;;;;;9.35;2.92;;;20.50;99.90;;;;;;4070415;29;20049;-59
2023/08/15 03:43:31;;;;;;;6.60;2.40;;;20.60;99.90;;;;;;4070673;29;20093;-59
2023/08/15 03:45:33;;;;;;;8.35;2.88;;;20.60;99.90;;;;;;4069869;29;20048;-59
2023/08/15 03:47:35;;;;;;;10.02;3.05;;;20.50;99.90;;;;;;4070943;29;20056;-59
2023/08/15 03:49:37;;;;;;;9.40;2.67;;;20.50;99.90;;;;;;4070432;29;20048;-59
2023/08/15 03:51:41;;;;;;;10.27;3.25;;;20.50;99.90;;;;;;4070376;29;20506;-59
2023/08/15 03:53:48;;;;;;;10.27;2.97;;;20.50;99.90;;;;;;4070023;29;20055;-63
2023/08/15 03:55:52;;;;;;;8.73;2.65;;;20.50;99.90;;;;;;4069741;29;20044;-59
2023/08/15 03:57:55;;;;;;;14.48;3.50;;;20.50;99.90;;;;;;4070351;29;20056;-58
2023/08/15 03:59:57;;;;;;;9.02;3.08;;;20.40;99.90;;;;;;4069152;29;20045;-58
2023/08/15 04:01:59;;;;;;;14.32;3.13;;;20.40;99.90;;;;;;4070145;29;20096;-60
2023/08/15 04:04:01;;;;;;;8.80;2.90;;;20.40;99.90;;;;;;4070898;29;20138;-61
2023/08/15 04:06:03;;;;;;;13.00;2.92;;;20.40;99.90;;;;;;4069119;29;20471;-56
2023/08/15 04:08:07;;;;;;;9.73;2.90;;;20.30;99.90;;;;;;4070534;29;20083;-61
2023/08/15 04:10:11;;;;;;;13.05;3.30;;;20.40;99.90;;;;;;4070622;29;20059;-58
2023/08/15 04:12:13;;;;;;;;;;;20.40;99.90;;;;;;4070571;29;20055;-57
2023/08/15 04:14:15;;;;;;;11.52;3.50;;;20.40;99.90;;;;;;4068720;29;19926;-59
2023/08/15 04:16:17;;;;;;;8.85;2.88;;;20.30;99.90;;;;;;4069621;29;20048;-57
2023/08/15 04:18:20;;;;;;;7.70;2.78;;;20.30;99.90;;;;;;4069992;29;20055;-57
2023/08/15 04:20:22;;;;;;;8.00;2.90;;;20.30;99.90;;;;;;4069779;29;20131;-57
2023/08/15 04:22:24;;;;;;;7.05;2.22;;;20.30;99.90;;;;;;4069609;29;20075;-57
2023/08/15 04:24:28;;;;;;;10.48;3.22;;;20.30;99.90;;;;;;4069240;29;20064;-59
2023/08/15 04:26:30;;;;;;;7.25;2.53;;;20.40;99.90;;;;;;4069626;29;20055;-56
2023/08/15 04:28:32;;;;;;;9.02;2.83;;;20.30;99.90;;;;;;4069946;29;20054;-56
2023/08/15 04:30:34;;;;;;;8.85;2.80;;;20.30;99.90;;;;;;4069908;29;20076;-57
2023/08/15 04:32:36;;;;;;;13.60;3.08;;;20.30;99.90;;;;;;4070075;29;20048;-58
2023/08/15 04:34:39;;;;;;;11.80;3.40;;;20.30;99.90;;;;;;4069212;29;20052;-57
2023/08/15 04:36:44;;;;;;;12.98;3.13;;;20.30;99.90;;;;;;4069494;29;20059;-55
2023/08/15 04:38:46;;;;;;;7.65;3.05;;;20.30;99.90;;;;;;4069921;29;20056;-55
2023/08/15 04:40:50;;;;;;;6.78;2.55;;;20.30;99.90;;;;;;4069806;29;20052;-55
2023/08/15 04:42:52;;;;;;;7.28;2.47;;;20.20;99.90;;;;;;4069716;29;20048;-55
2023/08/15 04:44:54;;;;;;;9.18;2.85;;;20.30;99.90;;;;;;4069376;29;20103;-55
2023/08/15 04:46:56;;;;;;;8.30;2.72;;;20.20;99.90;;;;;;4068448;29;20122;-54
2023/08/15 04:48:58;;;;;;;10.02;3.13;;;20.30;99.90;;;;;;4069627;29;20048;-54
2023/08/15 04:51:00;;;;;;;6.55;2.60;;;20.30;99.90;;;;;;4068043;29;20096;-54
2023/08/15 04:53:02;;;;;;;7.68;2.70;;;20.30;99.90;;;;;;4069680;29;20048;-55
2023/08/15 04:55:06;;;;;;;9.40;2.80;;;20.20;99.90;;;;;;4068831;29;20059;-55
2023/08/15 04:57:09;;;;;;;10.50;3.30;;;20.20;99.90;;;;;;4068013;29;20135;-55
2023/08/15 04:59:12;;;;;;;8.95;3.05;;;20.30;99.90;;;;;;4069349;29;20082;-55
2023/08/15 05:01:14;;;;;;;12.18;3.30;;;20.30;99.90;;;;;;4069580;29;20474;-55
2023/08/15 05:03:16;;;;;;;10.38;3.03;;;20.30;99.90;;;;;;4069651;29;20100;-55
2023/08/15 05:05:18;;;;;;;9.00;3.05;;;20.30;99.90;;;;;;4068277;29;20083;-56
2023/08/15 05:07:22;;;;;;;6.43;2.75;;;20.20;99.90;;;;;;4069361;29;20048;-55
2023/08/15 05:09:24;;;;;;;11.63;3.50;;;20.20;99.90;;;;;;4069662;29;20056;-55
2023/08/15 05:11:26;;;;;;;10.25;2.90;;;20.20;99.90;;;;;;4067993;29;20063;-55
2023/08/15 05:13:30;;;;;;;9.95;3.03;;;20.20;99.90;;;;;;4069267;29;20040;-56
2023/08/15 05:15:32;;;;;;;8.60;2.72;;;20.20;99.90;;;;;;4068325;29;20505;-55
2023/08/15 05:17:34;;;;;;;10.80;3.13;;;20.20;99.90;;;;;;4068922;29;20107;-56
2023/08/15 05:19:38;;;;;;;9.02;3.15;;;20.20;99.90;;;;;;4067370;29;20052;-55
2023/08/15 05:21:41;;;;;;;9.23;3.00;;;20.20;99.90;;;;;;4068940;29;20526;-55
2023/08/15 05:23:43;;;;;;;12.63;2.90;;;20.20;99.90;;;;;;4067781;29;20051;-56
2023/08/15 05:25:46;;;;;;;8.55;2.80;;;20.20;99.90;;;;;;4068508;29;20055;-57
2023/08/15 05:27:50;;;;;;;8.60;2.67;;;20.30;99.90;;;;;;4068925;29;20071;-58
2023/08/15 05:29:53;;;;;;;7.50;2.80;;;20.30;99.90;;;;;;4067949;29;20048;-58
2023/08/15 05:31:55;;;;;;;7.70;3.30;;;20.30;99.90;;;;;;4068857;29;20173;-58
2023/08/15 05:33:57;;;;;;;10.23;3.20;;;20.30;99.90;;;;;;4068968;29;20139;-57
2023/08/15 05:35:59;;;;;;;10.32;2.78;;;20.30;99.90;;;;;;4068124;29;20068;-58
2023/08/15 05:38:01;;;;;;;10.50;3.08;;;20.30;99.90;;;;;;4068665;29;20448;-58
2023/08/15 05:40:05;;;;;;;9.27;2.97;;;20.40;99.90;;;;;;4068819;29;20068;-58
2023/08/15 05:42:07;;;;;;;6.20;2.72;;;20.40;99.90;;;;;;4068734;29;20052;-58
2023/08/15 05:44:09;;;;;;;12.57;3.20;;;20.40;99.90;;;;;;4068614;29;20078;-59
2023/08/15 05:46:12;;;;;;;11.75;2.90;;;20.40;99.90;;;;;;4068445;29;20052;-57
2023/08/15 05:48:14;;;;;;;11.15;2.92;;;20.50;99.90;;;;;;4068472;29;20055;-58
2023/08/15 05:50:17;;;;;;;12.00;2.97;;;20.50;99.90;;;;;;4067265;29;20128;-59
2023/08/15 05:52:19;;;;;;;13.50;3.50;;;20.40;99.90;;;;;;4068911;29;20056;-64
2023/08/15 05:54:21;;;;;;;10.57;3.03;;;20.50;99.90;;;;;;4068786;29;20087;-58
2023/08/15 05:56:23;;;;;;;7.40;2.63;;;20.50;99.90;;;;;;4068269;29;20136;-58
2023/08/15 05:58:25;;;;;;;12.90;3.28;;;20.50;99.90;;;;;;4067280;29;20052;-59
2023/08/15 06:00:27;;;;;;;9.90;3.28;;;20.50;99.90;;;;;;4068624;29;20128;-58
2023/08/15 06:02:35;;;;;;;9.93;2.60;;;20.50;99.90;;;;;;4068614;29;20193;-58
2023/08/15 06:04:37;;;;;;;11.38;2.88;;;20.50;99.90;;;;;;4068227;29;20056;-59
2023/08/15 06:06:39;;;;;;;8.02;3.15;;;20.50;99.90;;;;;;4068244;29;20493;-59
2023/08/15 06:08:41;;;;;;;9.00;2.92;;;20.50;99.90;;;;;;4068491;29;20048;-59
2023/08/15 06:10:43;;;;;;;6.53;2.55;;;20.60;99.90;;;;;;4068292;29;20150;-58
2023/08/15 06:12:45;;;;;;;8.88;2.80;;;20.60;99.90;;;;;;4068460;29;20052;-58
2023/08/15 06:14:47;;;;;;;9.20;3.45;;;20.70;99.90;;;;;;4067651;29;20040;-58
2023/08/15 06:16:49;;;;;;;10.50;3.20;;;20.70;99.90;;;;;;4068172;29;20083;-58
2023/08/15 06:18:53;;;;;;;8.52;2.72;;;20.70;99.90;;;;;;4067885;29;20084;-58
2023/08/15 06:20:55;;;;;;;11.85;2.80;;;20.70;99.90;;;;;;4068084;29;20044;-54
2023/08/15 06:22:57;;;;;;;9.55;3.28;;;20.60;99.90;;;;;;4068312;29;20122;-56
2023/08/15 06:24:59;;;;;;;10.75;3.25;;;20.70;99.90;;;;;;4068251;29;20483;-57
2023/08/15 06:27:01;;;;;;;9.68;3.30;;;20.60;99.90;;;;;;4068555;29;20099;-57
2023/08/15 06:29:04;;;;;;;10.20;2.83;;;20.60;99.90;;;;;;4068654;29;20655;-57
2023/08/15 06:31:06;;;;;;;8.48;2.58;;;20.60;99.90;;;;;;4068541;29;20048;-57
2023/08/15 06:33:08;;;;;;;10.15;3.08;;;20.60;99.90;;;;;;4068568;29;20059;-57
2023/08/15 06:35:12;;;;;;;10.30;2.70;;;20.60;99.90;;;;;;4067918;29;20044;-57
2023/08/15 06:37:14;;;;;;;15.77;3.70;;;20.60;99.90;;;;;;4068673;29;20475;-65
2023/08/15 06:39:16;;;;;;;8.43;2.75;;;20.60;99.90;;;;;;4068842;29;20124;-64
2023/08/15 06:41:18;;;;;;;8.60;2.63;;;20.60;99.90;;;;;;4069539;29;20147;-59
2023/08/15 06:43:20;;;;;;;14.00;3.45;;;20.50;99.90;;;;;;4069093;29;20052;-60
2023/08/15 06:45:23;;;;;;;10.68;2.63;;;20.50;99.90;;;;;;4068215;29;20437;-59
2023/08/15 06:47:25;;;;;;;15.05;3.40;;;20.50;99.90;;;;;;4068560;29;20132;-62
2023/08/15 06:49:27;;;;;;;13.80;2.85;;;20.50;99.90;;;;;;4068866;29;20082;-59
2023/08/15 06:51:31;;;;;;;14.55;3.30;;;20.50;99.90;;;;;;4068161;29;20055;-59
2023/08/15 06:53:33;;;;;;;7.85;2.63;;;20.60;99.90;;;;;;4068666;29;20143;-61
2023/08/15 06:55:36;;;;;;;13.60;3.08;;;20.60;99.90;;;;;;4066496;29;20068;-58
2023/08/15 06:57:38;;;;;;;7.97;2.80;;;20.60;99.90;;;;;;4068135;29;20115;-63
2023/08/15 06:59:40;;;;;;;10.68;3.08;;;20.60;99.90;;;;;;4067957;29;20048;-60
2023/08/15 07:01:42;;;;;;;11.07;3.20;;;20.60;99.90;;;;;;4067641;29;20048;-58
2023/08/15 07:03:44;;;;;;;10.50;2.70;;;20.60;99.90;;;;;;4067977;29;20108;-57
2023/08/15 07:05:46;;;;;;;9.82;3.03;;;20.60;99.90;;;;;;4067255;29;20475;-58
2023/08/15 07:07:49;;;;;;;7.60;2.30;;;20.70;99.90;;;;;;4068056;29;20048;-58
2023/08/15 07:09:51;;;;;;;12.38;2.92;;;20.70;99.90;;;;;;4068231;29;20044;-58
2023/08/15 07:11:54;;;;;;;9.70;3.10;;;20.70;99.90;;;;;;4070771;29;20127;-58
2023/08/15 07:13:56;;;;;;;9.25;2.83;;;20.70;99.90;;;;;;4070839;29;20048;-58
2023/08/15 07:15:58;;;;;;;11.80;3.70;;;20.80;99.90;;;;;;4069973;29;20491;-58
2023/08/15 07:18:00;;;;;;;10.15;3.10;;;20.80;99.90;;;;;;4071127;29;20048;-59
2023/08/15 07:20:05;;;;;;;9.75;2.70;;;20.80;99.90;;;;;;4070815;29;20055;-59
2023/08/15 07:22:07;;;;;;;13.77;3.03;;;20.90;99.90;;;;;;4070804;29;20052;-59
2023/08/15 07:24:10;;;;;;;8.63;2.67;;;20.90;99.90;;;;;;4070662;29;20044;-60
2023/08/15 07:26:13;;;;;;;9.57;2.90;;;20.90;99.90;;;;;;4070209;29;20052;-59
2023/08/15 07:28:15;;;;;;;9.57;3.03;;;21.10;99.90;;;;;;4070562;29;20123;-59
2023/08/15 07:30:17;;;;;;;9.73;2.72;;;21.10;99.90;;;;;;4070437;29;20549;-59
2023/08/15 07:32:19;;;;;;;9.40;2.47;;;21.10;99.90;;;;;;4070508;29;20134;-58
2023/08/15 07:34:23;;;;;;;12.73;2.95;;;21.20;99.90;;;;;;4069338;29;20047;-59
2023/08/15 07:36:25;;;;;;;9.73;3.33;;;21.20;99.90;;;;;;4070177;29;20052;-59
2023/08/15 07:38:27;;;;;;;13.25;4.18;;;21.30;99.90;;;;;;4070358;29;20048;-59
2023/08/15 07:40:30;;;;;;;10.52;3.35;;;21.50;99.90;;;;;;4070524;29;20076;-59
2023/08/15 07:42:33;;;;;;;10.38;2.88;;;21.60;99.90;;;;;;4070452;29;20049;-58
2023/08/15 07:44:35;;;;;;;7.70;2.75;;;21.70;99.90;;;;;;4070449;29;20052;-58
2023/08/15 07:46:37;;;;;;;13.88;2.92;;;21.60;99.90;;;;;;4069691;29;20048;-58
2023/08/15 07:48:39;;;;;;;11.65;2.83;;;21.70;99.90;;;;;;4070261;29;20055;-58
2023/08/15 07:50:41;;;;;;;9.60;3.10;;;21.80;99.90;;;;;;4070619;29;20060;-61
2023/08/15 07:52:43;;;;;;;9.40;3.00;;;21.90;99.90;;;;;;4070587;29;20044;-58
2023/08/15 07:54:45;;;;;;;9.27;3.10;;;22.00;99.90;;;;;;4070304;29;20044;-58
2023/08/15 07:56:49;;;;;;;13.00;3.10;;;22.10;99.90;;;;;;4069659;29;20546;-57
2023/08/15 07:58:51;;;;;;;12.80;3.40;;;22.20;99.90;;;;;;4070117;29;20059;-58
2023/08/15 08:00:53;;;;;;;8.95;2.83;;;22.30;99.90;;;;;;4070010;29;20410;-58
2023/08/15 08:02:56;;;;;;;13.18;3.92;;;22.40;99.90;;;;;;4070128;29;20055;-58
2023/08/15 08:04:59;;;;;;;10.10;3.42;;;22.50;99.90;;;;;;4070242;29;20076;-59
2023/08/15 08:07:01;;;;;;;12.60;4.00;;;22.60;99.90;;;;;;4069817;29;20044;-59
2023/08/15 08:09:05;;;;;;;12.20;2.90;;;22.60;99.90;;;;;;4070320;29;20631;-59
2023/08/15 08:11:07;;;;;;;8.80;3.23;;;22.70;99.90;;;;;;4069921;29;20056;-59
2023/08/15 08:13:12;;;;;;;8.43;2.88;;;22.60;99.90;;;;;;4070143;29;20086;-59
2023/08/15 08:15:14;;;;;;;12.82;2.50;;;22.70;99.90;;;;;;4069149;29;20055;-59
2023/08/15 08:17:16;;;;;;;9.05;2.60;;;22.70;99.90;;;;;;4069989;29;20064;-59
2023/08/15 08:19:18;;;;;;;8.32;2.85;;;22.80;99.90;;;;;;4070119;29;20074;-59
2023/08/15 08:21:20;;;;;;;7.90;2.85;;;22.80;99.90;;;;;;4069987;29;20406;-58
2023/08/15 08:23:24;;;;;;;10.35;3.08;;;22.90;99.90;;;;;;4070085;29;20103;-58
2023/08/15 08:25:27;;;;;;;9.70;3.38;;;22.90;99.90;;;;;;4069462;29;20055;-59
2023/08/15 08:27:29;;;;;;;11.00;3.05;;;23.00;99.60;;;;;;4069657;29;20048;-58
2023/08/15 08:29:32;;;;;;;8.25;2.72;;;23.00;99.70;;;;;;4069635;29;20094;-59
2023/08/15 08:31:34;;;;;;;11.20;3.15;;;23.10;99.50;;;;;;4070061;29;20063;-58
2023/08/15 08:33:36;;;;;;;7.95;2.85;;;23.20;99.40;;;;;;4069776;29;20060;-58
2023/08/15 08:35:39;;;;;;;8.55;2.53;;;23.20;99.50;;;;;;4069327;29;20177;-58
2023/08/15 08:37:42;;;;;;;11.15;3.25;;;23.10;98.90;;;;;;4069604;29;20391;-58
2023/08/15 08:39:44;;;;;;;10.55;2.97;;;23.20;98.50;;;;;;4069654;29;20051;-59
2023/08/15 08:41:47;;;;;;;9.13;2.83;;;23.10;98.80;;;;;;4069848;29;20072;-58
2023/08/15 08:43:49;;;;;;;11.98;3.13;;;23.20;98.90;;;;;;4069230;29;20052;-59
2023/08/15 08:45:58;;;;;;;8.68;2.40;;;23.30;99.00;;;;;;4069081;29;20538;-59
2023/08/15 08:48:01;;;;;;;7.43;2.83;;;23.30;98.80;;;;;;4069466;29;20052;-59
2023/08/15 08:50:06;;;;;;;8.70;2.95;;;23.40;99.20;;;;;;4069580;29;20092;-58
2023/08/15 08:52:08;;;;;;;9.20;3.15;;;23.20;98.60;;;;;;4068763;29;20044;-58
2023/08/15 08:54:10;;;;;;;8.63;2.88;;;23.30;98.80;;;;;;4069629;29;20054;-59
2023/08/15 08:56:12;;;;;;;8.07;2.67;;;23.40;99.00;;;;;;4068828;29;20551;-58
2023/08/15 08:58:14;;;;;;;9.55;2.70;;;23.60;98.80;;;;;;4069184;29;20110;-58
2023/08/15 09:00:19;;;;;;;10.07;3.40;;;23.70;98.60;;;;;;4068090;29;20047;-58
2023/08/15 09:02:23;;;;;;;11.27;4.30;;;23.90;98.50;;;;;;4069225;29;20052;-59
2023/08/15 09:04:25;;;;;;;14.38;4.15;;;24.00;98.50;;;;;;4068193;29;20059;-58
2023/08/15 09:06:27;;;;;;;8.90;3.30;;;24.10;98.30;;;;;;4068606;29;20051;-59
2023/08/15 09:08:29;;;;;;;12.50;3.45;;;24.40;97.80;;;;;;4069118;29;20048;-59
2023/08/15 09:10:31;;;;;;;6.38;2.53;;;24.50;97.70;;;;;;4069186;29;20062;-59
2023/08/15 09:12:34;;;;;;;9.80;3.50;;;24.60;97.20;;;;;;4068928;29;20055;-58
2023/08/15 09:14:40;;;;;;;9.82;2.83;;;24.70;96.50;;;;;;4068886;29;20044;-59
2023/08/15 09:16:47;;;;;;;9.55;3.45;;;24.80;96.50;;;;;;4068403;29;20044;-59
2023/08/15 09:18:51;;;;;;;9.45;3.00;;;24.90;96.60;;;;;;4069174;29;20079;-59
2023/08/15 09:20:53;;;;;;;8.07;2.63;;;25.10;96.10;;;;;;4068986;29;20048;-58
2023/08/15 09:22:57;;;;;;;5.72;2.10;;;25.30;96.20;;;;;;4069083;29;20052;-59
2023/08/15 09:24:59;;;;;;;6.70;2.85;;;25.40;96.20;;;;;;4069069;29;20051;-59
2023/08/15 09:27:05;;;;;;;9.50;2.95;;;25.50;96.00;;;;;;4067754;29;20558;-59
2023/08/15 09:29:08;;;;;;;8.73;3.33;;;25.30;95.50;;;;;;4068695;29;20047;-59
2023/08/15 09:31:11;;;;;;;5.93;2.75;;;25.30;95.70;;;;;;4068915;29;20082;-59
2023/08/15 09:33:14;;;;;;;7.18;2.88;;;25.10;95.80;;;;;;4068304;29;20086;-58
2023/08/15 09:35:18;;;;;;;8.25;2.53;;;25.20;95.80;;;;;;4067439;29;20059;-55
2023/08/15 09:37:21;;;;;;;6.82;2.47;;;25.30;95.80;;;;;;4068340;29;20350;-58
2023/08/15 09:39:24;;;;;;;9.45;3.05;;;25.30;95.60;;;;;;4068856;29;20462;-55
2023/08/15 09:41:26;;;;;;;7.40;2.55;;;24.90;94.60;;;;;;4068382;29;20082;-58
2023/08/15 09:43:29;;;;;;;9.75;3.08;;;24.70;95.40;;;;;;4068696;29;20123;-56
2023/08/15 09:45:32;;;;;;;7.85;2.70;;;24.60;95.50;;;;;;4068127;29;20052;-56
2023/08/15 09:47:36;;;;;;;6.57;2.60;;;24.60;95.10;;;;;;4068589;29;20048;-55
2023/08/15 09:49:39;;;;;;;7.53;2.80;;;24.70;95.60;;;;;;4068639;29;20044;-55
2023/08/15 09:51:43;;;;;;;4.85;2.40;;;24.70;95.60;;;;;;4068495;29;20134;-56
2023/08/15 09:53:46;;;;;;;5.05;2.65;;;24.70;95.10;;;;;;4068469;29;20082;-55
2023/08/15 09:55:49;;;;;;;7.68;2.95;;;24.70;95.20;;;;;;4066351;29;20426;-56
2023/08/15 09:57:51;;;;;;;5.60;2.40;;;24.70;95.40;;;;;;4068450;29;20048;-55
2023/08/15 09:59:53;;;;;;;9.48;2.88;;;24.70;95.50;;;;;;4068481;29;20139;-56
2023/08/15 10:01:56;;;;;;;8.70;3.53;;;24.70;95.40;;;;;;4068381;29;20052;-56
2023/08/15 10:04:06;;;;;;;7.32;2.80;;;24.70;95.50;;;;;;4068399;29;20056;-56
2023/08/15 10:06:10;;;;;;;9.65;2.60;;;24.70;95.40;;;;;;4067746;29;20063;-59
2023/08/15 10:08:19;;;;;;;6.00;2.20;;;24.80;95.60;;;;;;4068341;29;20135;-59
2023/08/15 10:10:21;;;;;;;8.48;2.90;;;24.90;95.70;;;;;;4067937;29;20052;-58
2023/08/15 10:12:25;;;;;;;6.00;2.40;;;24.90;95.60;;;;;;4068502;29;20052;-59
2023/08/15 10:14:28;;;;;;;8.00;2.63;;;25.00;95.40;;;;;;4068237;29;20127;-58
2023/08/15 10:16:31;;;;;;;6.88;2.45;;;25.00;95.30;;;;;;4067811;29;20375;-56
2023/08/15 10:18:34;;;;;;;5.03;2.15;;;25.10;95.40;;;;;;4068405;29;20466;-59
2023/08/15 10:20:37;;;;;;;9.90;3.28;;;25.10;95.30;;;;;;4068258;29;20059;-59
2023/08/15 10:22:39;;;;;;;7.93;2.58;;;25.10;95.00;;;;;;4068368;29;20062;-58
2023/08/15 10:24:43;;;;;;;12.80;2.67;;;24.90;95.20;;;;;;4067790;29;20119;-59
2023/08/15 10:26:46;;;;;;;7.05;2.50;;;24.80;95.20;;;;;;4067149;29;20052;-59
2023/08/15 10:28:49;;;;;;;6.47;2.50;;;24.90;95.30;;;;;;4068082;29;20078;-57
2023/08/15 10:30:51;;;;;;;8.00;2.38;;;24.90;95.40;;;;;;4067950;29;20079;-59
2023/08/15 10:32:59;;;;;;;7.65;2.17;;;24.90;95.30;;;;;;4068359;29;20135;-58
2023/08/15 10:35:05;;;;;;;6.13;2.28;;;24.90;95.40;;;;;;4068182;29;20087;-59
2023/08/15 10:37:31;;;;;;;6.38;2.78;;;24.90;95.20;;;;;;4067272;29;20384;-59